sensor_id;sensor_type;location;lat;lon;timestamp;temperature;humidity
51815;DHT22;37874;53.158;6.766;2022-07-03T00:15:04;26.10;45.30
51815;DHT22;37874;53.158;6.766;2022-07-03T00:20:40;26.00;45.30
51815;DHT22;37874;53.158;6.766;2022-07-03T00:23:30;26.00;45.50
51815;DHT22;37874;53.158;6.766;2022-07-03T00:26:19;25.90;45.50
51815;DHT22;37874;53.158;6.766;2022-07-03T00:32:26;25.90;45.70
51815;DHT22;37874;53.158;6.766;2022-07-03T00:35:16;25.90;45.90
51815;DHT22;37874;53.158;6.766;2022-07-03T00:37:42;25.80;45.90
51815;DHT22;37874;53.158;6.766;2022-07-03T00:40:09;25.70;46.00
51815;DHT22;37874;53.158;6.766;2022-07-03T00:42:37;25.70;46.10
51815;DHT22;37874;53.158;6.766;2022-07-03T00:45:07;25.70;46.30
51815;DHT22;37874;53.158;6.766;2022-07-03T00:47:36;25.60;46.30
51815;DHT22;37874;53.158;6.766;2022-07-03T00:50:07;25.60;46.40
51815;DHT22;37874;53.158;6.766;2022-07-03T00:52:36;25.60;46.50
51815;DHT22;37874;53.158;6.766;2022-07-03T00:55:07;25.60;46.70
51815;DHT22;37874;53.158;6.766;2022-07-03T00:57:35;25.50;46.70
51815;DHT22;37874;53.158;6.766;2022-07-03T01:00:08;25.50;46.70
51815;DHT22;37874;53.158;6.766;2022-07-03T01:05:17;25.40;47.00
51815;DHT22;37874;53.158;6.766;2022-07-03T01:11:07;25.40;47.00
51815;DHT22;37874;53.158;6.766;2022-07-03T01:14:15;25.40;47.10
51815;DHT22;37874;53.158;6.766;2022-07-03T01:30:27;25.20;47.50
51815;DHT22;37874;53.158;6.766;2022-07-03T01:35:28;25.10;47.50
51815;DHT22;37874;53.158;6.766;2022-07-03T01:37:55;25.20;47.60
51815;DHT22;37874;53.158;6.766;2022-07-03T01:40:21;25.10;47.50
51815;DHT22;37874;53.158;6.766;2022-07-03T01:42:49;25.10;47.60
51815;DHT22;37874;53.158;6.766;2022-07-03T01:45:19;25.10;47.50
51815;DHT22;37874;53.158;6.766;2022-07-03T01:47:46;25.00;47.60
51815;DHT22;37874;53.158;6.766;2022-07-03T01:50:15;25.00;47.60
51815;DHT22;37874;53.158;6.766;2022-07-03T01:52:43;25.00;47.60
51815;DHT22;37874;53.158;6.766;2022-07-03T01:55:15;25.00;47.70
51815;DHT22;37874;53.158;6.766;2022-07-03T01:57:47;25.00;47.70
51815;DHT22;37874;53.158;6.766;2022-07-03T02:00:19;24.90;47.50
51815;DHT22;37874;53.158;6.766;2022-07-03T02:03:01;24.90;47.70
51815;DHT22;37874;53.158;6.766;2022-07-03T02:05:35;24.90;47.90
51815;DHT22;37874;53.158;6.766;2022-07-03T02:08:15;24.80;47.80
51815;DHT22;37874;53.158;6.766;2022-07-03T02:16:14;24.70;47.90
51815;DHT22;37874;53.158;6.766;2022-07-03T02:18:41;24.60;47.80
51815;DHT22;37874;53.158;6.766;2022-07-03T02:21:17;24.60;47.90
51815;DHT22;37874;53.158;6.766;2022-07-03T02:24:14;24.60;48.00
51815;DHT22;37874;53.158;6.766;2022-07-03T02:26:42;24.50;48.20
51815;DHT22;37874;53.158;6.766;2022-07-03T02:29:16;24.50;48.20
51815;DHT22;37874;53.158;6.766;2022-07-03T02:31:44;24.40;48.10
51815;DHT22;37874;53.158;6.766;2022-07-03T02:34:16;24.40;48.20
51815;DHT22;37874;53.158;6.766;2022-07-03T02:36:45;24.40;48.30
51815;DHT22;37874;53.158;6.766;2022-07-03T02:39:25;24.30;48.20
51815;DHT22;37874;53.158;6.766;2022-07-03T02:42:03;24.30;48.40
51815;DHT22;37874;53.158;6.766;2022-07-03T02:44:45;24.30;48.50
51815;DHT22;37874;53.158;6.766;2022-07-03T02:50:06;24.30;48.20
51815;DHT22;37874;53.158;6.766;2022-07-03T02:55:34;24.30;48.10
51815;DHT22;37874;53.158;6.766;2022-07-03T03:04:21;24.10;48.70
51815;DHT22;37874;53.158;6.766;2022-07-03T03:16:45;24.10;48.40
51815;DHT22;37874;53.158;6.766;2022-07-03T03:22:52;24.00;48.70
51815;DHT22;37874;53.158;6.766;2022-07-03T03:26:01;24.10;49.00
51815;DHT22;37874;53.158;6.766;2022-07-03T03:37:56;24.20;48.70
51815;DHT22;37874;53.158;6.766;2022-07-03T03:46:29;24.20;48.70
51815;DHT22;37874;53.158;6.766;2022-07-03T03:58:23;24.30;48.00
51815;DHT22;37874;53.158;6.766;2022-07-03T04:01:08;24.40;47.70
51815;DHT22;37874;53.158;6.766;2022-07-03T04:10:18;24.40;47.30
51815;DHT22;37874;53.158;6.766;2022-07-03T04:56:31;24.40;47.60
51815;DHT22;37874;53.158;6.766;2022-07-03T04:59:16;24.40;47.60
51815;DHT22;37874;53.158;6.766;2022-07-03T05:02:19;24.40;47.70
51815;DHT22;37874;53.158;6.766;2022-07-03T05:05:04;24.50;48.00
51815;DHT22;37874;53.158;6.766;2022-07-03T05:13:36;24.60;47.80
51815;DHT22;37874;53.158;6.766;2022-07-03T05:16:39;24.70;47.90
51815;DHT22;37874;53.158;6.766;2022-07-03T05:23:05;24.70;47.60
51815;DHT22;37874;53.158;6.766;2022-07-03T05:26:08;24.80;47.80
51815;DHT22;37874;53.158;6.766;2022-07-03T05:49:57;25.50;46.60
51815;DHT22;37874;53.158;6.766;2022-07-03T06:04:55;25.70;47.20
51815;DHT22;37874;53.158;6.766;2022-07-03T06:07:58;25.70;47.20
51815;DHT22;37874;53.158;6.766;2022-07-03T06:10:43;25.80;46.10
51815;DHT22;37874;53.158;6.766;2022-07-03T06:13:27;25.90;46.00
51815;DHT22;37874;53.158;6.766;2022-07-03T06:15:53;26.10;45.20
51815;DHT22;37874;53.158;6.766;2022-07-03T06:18:19;26.10;44.30
51815;DHT22;37874;53.158;6.766;2022-07-03T06:20:45;26.20;43.80
51815;DHT22;37874;53.158;6.766;2022-07-03T06:23:11;26.30;44.10
51815;DHT22;37874;53.158;6.766;2022-07-03T06:25:37;26.30;43.60
51815;DHT22;37874;53.158;6.766;2022-07-03T06:28:03;26.30;43.00
51815;DHT22;37874;53.158;6.766;2022-07-03T06:30:28;26.40;42.80
51815;DHT22;37874;53.158;6.766;2022-07-03T06:32:54;26.40;42.70
51815;DHT22;37874;53.158;6.766;2022-07-03T06:35:20;26.50;43.40
51815;DHT22;37874;53.158;6.766;2022-07-03T06:37:46;26.50;42.40
51815;DHT22;37874;53.158;6.766;2022-07-03T06:40:12;26.50;42.30
51815;DHT22;37874;53.158;6.766;2022-07-03T06:42:38;26.60;42.60
51815;DHT22;37874;53.158;6.766;2022-07-03T06:45:04;26.60;41.50
51815;DHT22;37874;53.158;6.766;2022-07-03T06:47:30;26.70;41.50
51815;DHT22;37874;53.158;6.766;2022-07-03T06:49:56;26.80;41.30
51815;DHT22;37874;53.158;6.766;2022-07-03T06:52:21;26.90;41.00
51815;DHT22;37874;53.158;6.766;2022-07-03T06:54:47;26.90;40.70
51815;DHT22;37874;53.158;6.766;2022-07-03T06:57:13;27.00;40.60
51815;DHT22;37874;53.158;6.766;2022-07-03T06:59:40;27.00;40.60
51815;DHT22;37874;53.158;6.766;2022-07-03T07:02:07;26.90;40.50
51815;DHT22;37874;53.158;6.766;2022-07-03T07:04:33;27.00;40.20
51815;DHT22;37874;53.158;6.766;2022-07-03T07:06:59;27.10;40.10
51815;DHT22;37874;53.158;6.766;2022-07-03T07:09:25;27.10;39.90
51815;DHT22;37874;53.158;6.766;2022-07-03T07:11:51;27.10;39.90
51815;DHT22;37874;53.158;6.766;2022-07-03T07:14:17;27.20;40.30
51815;DHT22;37874;53.158;6.766;2022-07-03T07:16:43;27.20;40.20
51815;DHT22;37874;53.158;6.766;2022-07-03T07:19:09;27.20;40.00
51815;DHT22;37874;53.158;6.766;2022-07-03T07:21:35;27.30;39.90
51815;DHT22;37874;53.158;6.766;2022-07-03T07:24:00;27.30;39.90
51815;DHT22;37874;53.158;6.766;2022-07-03T07:26:26;27.20;39.90
51815;DHT22;37874;53.158;6.766;2022-07-03T07:28:52;27.10;39.60
51815;DHT22;37874;53.158;6.766;2022-07-03T07:31:18;27.20;39.50
51815;DHT22;37874;53.158;6.766;2022-07-03T07:33:44;27.20;39.80
51815;DHT22;37874;53.158;6.766;2022-07-03T07:36:10;27.30;40.10
51815;DHT22;37874;53.158;6.766;2022-07-03T07:38:35;27.30;40.20
51815;DHT22;37874;53.158;6.766;2022-07-03T07:41:01;27.30;40.30
51815;DHT22;37874;53.158;6.766;2022-07-03T07:43:27;27.30;39.90
51815;DHT22;37874;53.158;6.766;2022-07-03T07:45:53;27.40;39.50
51815;DHT22;37874;53.158;6.766;2022-07-03T07:48:19;27.40;39.10
51815;DHT22;37874;53.158;6.766;2022-07-03T07:50:45;27.40;39.60
51815;DHT22;37874;53.158;6.766;2022-07-03T07:53:11;27.40;39.90
51815;DHT22;37874;53.158;6.766;2022-07-03T07:55:37;27.40;39.50
51815;DHT22;37874;53.158;6.766;2022-07-03T07:58:03;27.50;39.80
51815;DHT22;37874;53.158;6.766;2022-07-03T08:00:28;27.50;40.00
51815;DHT22;37874;53.158;6.766;2022-07-03T08:02:54;27.50;40.20
51815;DHT22;37874;53.158;6.766;2022-07-03T08:05:39;27.60;39.70
51815;DHT22;37874;53.158;6.766;2022-07-03T08:08:16;27.60;39.80
51815;DHT22;37874;53.158;6.766;2022-07-03T08:10:43;27.60;39.90
51815;DHT22;37874;53.158;6.766;2022-07-03T08:13:11;27.60;40.20
51815;DHT22;37874;53.158;6.766;2022-07-03T08:15:37;27.60;40.00
51815;DHT22;37874;53.158;6.766;2022-07-03T08:18:04;27.60;40.20
51815;DHT22;37874;53.158;6.766;2022-07-03T08:20:30;27.70;40.20
51815;DHT22;37874;53.158;6.766;2022-07-03T08:22:56;27.70;40.00
51815;DHT22;37874;53.158;6.766;2022-07-03T08:25:23;27.70;39.80
51815;DHT22;37874;53.158;6.766;2022-07-03T08:27:49;27.70;39.50
51815;DHT22;37874;53.158;6.766;2022-07-03T08:30:15;27.70;39.80
51815;DHT22;37874;53.158;6.766;2022-07-03T08:32:49;27.70;40.10
51815;DHT22;37874;53.158;6.766;2022-07-03T08:35:16;27.80;40.00
51815;DHT22;37874;53.158;6.766;2022-07-03T08:37:42;27.80;39.90
51815;DHT22;37874;53.158;6.766;2022-07-03T08:40:10;27.80;39.50
51815;DHT22;37874;53.158;6.766;2022-07-03T08:42:43;27.90;39.40
51815;DHT22;37874;53.158;6.766;2022-07-03T08:45:18;27.90;39.00
51815;DHT22;37874;53.158;6.766;2022-07-03T08:47:46;27.90;38.80
51815;DHT22;37874;53.158;6.766;2022-07-03T08:50:17;27.90;38.40
51815;DHT22;37874;53.158;6.766;2022-07-03T08:52:44;27.90;38.50
51815;DHT22;37874;53.158;6.766;2022-07-03T08:55:12;27.90;38.80
51815;DHT22;37874;53.158;6.766;2022-07-03T08:57:43;27.90;38.60
51815;DHT22;37874;53.158;6.766;2022-07-03T09:00:15;27.90;37.00
51815;DHT22;37874;53.158;6.766;2022-07-03T09:02:47;28.00;37.50
51815;DHT22;37874;53.158;6.766;2022-07-03T09:05:15;28.00;36.70
51815;DHT22;37874;53.158;6.766;2022-07-03T09:07:43;28.00;36.50
51815;DHT22;37874;53.158;6.766;2022-07-03T09:10:11;28.10;36.00
51815;DHT22;37874;53.158;6.766;2022-07-03T09:12:38;28.10;36.50
51815;DHT22;37874;53.158;6.766;2022-07-03T09:15:06;28.10;36.60
51815;DHT22;37874;53.158;6.766;2022-07-03T09:17:32;28.10;36.70
51815;DHT22;37874;53.158;6.766;2022-07-03T09:20:00;28.10;36.90
51815;DHT22;37874;53.158;6.766;2022-07-03T09:22:34;28.10;36.80
51815;DHT22;37874;53.158;6.766;2022-07-03T09:25:04;28.30;37.40
51815;DHT22;37874;53.158;6.766;2022-07-03T09:27:31;28.30;37.50
51815;DHT22;37874;53.158;6.766;2022-07-03T09:30:08;28.40;37.20
51815;DHT22;37874;53.158;6.766;2022-07-03T09:35:26;28.60;36.70
51815;DHT22;37874;53.158;6.766;2022-07-03T09:38:00;28.70;36.70
51815;DHT22;37874;53.158;6.766;2022-07-03T09:40:53;28.70;36.30
51815;DHT22;37874;53.158;6.766;2022-07-03T09:43:29;28.70;36.00
51815;DHT22;37874;53.158;6.766;2022-07-03T09:45:57;28.70;35.20
51815;DHT22;37874;53.158;6.766;2022-07-03T09:50:52;28.80;34.50
51815;DHT22;37874;53.158;6.766;2022-07-03T09:53:59;28.90;34.60
51815;DHT22;37874;53.158;6.766;2022-07-03T09:56:33;28.90;34.60
51815;DHT22;37874;53.158;6.766;2022-07-03T09:59:09;28.90;34.10
51815;DHT22;37874;53.158;6.766;2022-07-03T10:01:41;29.00;34.10
51815;DHT22;37874;53.158;6.766;2022-07-03T10:04:23;29.00;34.80
51815;DHT22;37874;53.158;6.766;2022-07-03T10:07:07;29.10;35.30
51815;DHT22;37874;53.158;6.766;2022-07-03T10:09:34;29.20;33.70
51815;DHT22;37874;53.158;6.766;2022-07-03T10:12:02;29.20;33.00
51815;DHT22;37874;53.158;6.766;2022-07-03T10:14:30;29.30;32.60
51815;DHT22;37874;53.158;6.766;2022-07-03T10:16:57;29.30;32.90
51815;DHT22;37874;53.158;6.766;2022-07-03T10:19:27;29.30;32.80
51815;DHT22;37874;53.158;6.766;2022-07-03T10:22:17;29.40;32.10
51815;DHT22;37874;53.158;6.766;2022-07-03T10:24:42;29.40;32.40
51815;DHT22;37874;53.158;6.766;2022-07-03T10:27:09;29.50;32.90
51815;DHT22;37874;53.158;6.766;2022-07-03T10:29:36;29.50;32.20
51815;DHT22;37874;53.158;6.766;2022-07-03T10:32:06;29.40;32.60
51815;DHT22;37874;53.158;6.766;2022-07-03T10:34:33;29.50;33.00
51815;DHT22;37874;53.158;6.766;2022-07-03T10:37:01;29.40;33.20
51815;DHT22;37874;53.158;6.766;2022-07-03T10:39:59;29.40;33.20
51815;DHT22;37874;53.158;6.766;2022-07-03T10:42:48;29.50;33.60
51815;DHT22;37874;53.158;6.766;2022-07-03T10:45:34;29.40;33.10
51815;DHT22;37874;53.158;6.766;2022-07-03T10:48:00;29.30;33.20
51815;DHT22;37874;53.158;6.766;2022-07-03T10:50:26;29.20;33.40
51815;DHT22;37874;53.158;6.766;2022-07-03T10:52:52;29.20;33.70
51815;DHT22;37874;53.158;6.766;2022-07-03T10:55:18;29.20;33.70
51815;DHT22;37874;53.158;6.766;2022-07-03T10:58:07;29.10;33.80
51815;DHT22;37874;53.158;6.766;2022-07-03T11:01:06;29.10;34.40
51815;DHT22;37874;53.158;6.766;2022-07-03T11:07:28;29.10;34.60
51815;DHT22;37874;53.158;6.766;2022-07-03T11:13:05;29.00;35.00
51815;DHT22;37874;53.158;6.766;2022-07-03T11:24:43;28.90;35.40
51815;DHT22;37874;53.158;6.766;2022-07-03T11:27:13;28.90;35.00
51815;DHT22;37874;53.158;6.766;2022-07-03T11:29:58;28.90;33.90
51815;DHT22;37874;53.158;6.766;2022-07-03T11:32:53;28.90;33.60
51815;DHT22;37874;53.158;6.766;2022-07-03T11:41:42;29.10;34.80
51815;DHT22;37874;53.158;6.766;2022-07-03T11:44:27;29.30;34.90
51815;DHT22;37874;53.158;6.766;2022-07-03T11:53:56;29.50;33.30
51815;DHT22;37874;53.158;6.766;2022-07-03T11:59:44;29.50;33.40
51815;DHT22;37874;53.158;6.766;2022-07-03T12:05:58;29.50;33.60
51815;DHT22;37874;53.158;6.766;2022-07-03T12:08:43;29.60;34.20
51815;DHT22;37874;53.158;6.766;2022-07-03T12:24:10;29.80;33.80
51815;DHT22;37874;53.158;6.766;2022-07-03T12:27:14;29.70;33.90
51815;DHT22;37874;53.158;6.766;2022-07-03T12:30:18;29.60;35.10
51815;DHT22;37874;53.158;6.766;2022-07-03T12:45:02;29.30;36.70
51815;DHT22;37874;53.158;6.766;2022-07-03T12:48:01;29.30;36.70
51815;DHT22;37874;53.158;6.766;2022-07-03T12:53:54;29.20;36.60
51815;DHT22;37874;53.158;6.766;2022-07-03T12:59:05;29.30;36.70
51815;DHT22;37874;53.158;6.766;2022-07-03T13:05:18;29.40;36.40
51815;DHT22;37874;53.158;6.766;2022-07-03T13:07:46;29.40;35.80
51815;DHT22;37874;53.158;6.766;2022-07-03T13:10:17;29.40;35.90
51815;DHT22;37874;53.158;6.766;2022-07-03T13:15:14;29.20;36.40
51815;DHT22;37874;53.158;6.766;2022-07-03T13:20:23;29.20;37.00
51815;DHT22;37874;53.158;6.766;2022-07-03T13:22:50;29.30;37.20
51815;DHT22;37874;53.158;6.766;2022-07-03T13:25:16;29.40;37.40
51815;DHT22;37874;53.158;6.766;2022-07-03T13:27:42;29.40;37.30
51815;DHT22;37874;53.158;6.766;2022-07-03T13:30:15;29.40;37.20
51815;DHT22;37874;53.158;6.766;2022-07-03T13:32:41;29.40;37.30
51815;DHT22;37874;53.158;6.766;2022-07-03T13:35:11;29.40;37.40
51815;DHT22;37874;53.158;6.766;2022-07-03T13:37:37;29.30;37.30
51815;DHT22;37874;53.158;6.766;2022-07-03T13:40:04;29.30;37.10
51815;DHT22;37874;53.158;6.766;2022-07-03T13:42:31;29.20;37.10
51815;DHT22;37874;53.158;6.766;2022-07-03T13:44:57;29.10;37.50
51815;DHT22;37874;53.158;6.766;2022-07-03T13:47:23;29.10;37.10
51815;DHT22;37874;53.158;6.766;2022-07-03T13:49:49;29.00;37.70
51815;DHT22;37874;53.158;6.766;2022-07-03T13:52:18;29.00;38.00
51815;DHT22;37874;53.158;6.766;2022-07-03T13:54:46;28.90;38.40
51815;DHT22;37874;53.158;6.766;2022-07-03T13:57:13;28.90;38.90
51815;DHT22;37874;53.158;6.766;2022-07-03T13:59:40;28.80;40.40
51815;DHT22;37874;53.158;6.766;2022-07-03T14:02:06;28.70;41.30
51815;DHT22;37874;53.158;6.766;2022-07-03T14:04:32;28.60;42.10
51815;DHT22;37874;53.158;6.766;2022-07-03T14:06:58;28.40;44.10
51815;DHT22;37874;53.158;6.766;2022-07-03T14:09:24;28.30;44.40
51815;DHT22;37874;53.158;6.766;2022-07-03T14:11:51;28.20;44.80
51815;DHT22;37874;53.158;6.766;2022-07-03T14:14:17;28.00;44.10
51815;DHT22;37874;53.158;6.766;2022-07-03T14:16:43;27.90;44.30
51815;DHT22;37874;53.158;6.766;2022-07-03T14:19:08;27.80;44.70
51815;DHT22;37874;53.158;6.766;2022-07-03T14:21:34;27.70;45.00
51815;DHT22;37874;53.158;6.766;2022-07-03T14:24:00;27.70;45.10
51815;DHT22;37874;53.158;6.766;2022-07-03T14:26:28;27.70;45.60
51815;DHT22;37874;53.158;6.766;2022-07-03T14:29:23;27.60;45.90
51815;DHT22;37874;53.158;6.766;2022-07-03T14:32:07;27.50;46.20
51815;DHT22;37874;53.158;6.766;2022-07-03T14:34:51;27.30;46.60
51815;DHT22;37874;53.158;6.766;2022-07-03T14:37:17;27.00;47.20
51815;DHT22;37874;53.158;6.766;2022-07-03T14:39:48;26.80;47.30
51815;DHT22;37874;53.158;6.766;2022-07-03T14:42:15;26.60;47.60
51815;DHT22;37874;53.158;6.766;2022-07-03T14:44:41;26.50;48.40
51815;DHT22;37874;53.158;6.766;2022-07-03T14:47:07;26.40;48.50
51815;DHT22;37874;53.158;6.766;2022-07-03T14:49:33;26.40;49.00
51815;DHT22;37874;53.158;6.766;2022-07-03T14:52:01;26.40;49.30
51815;DHT22;37874;53.158;6.766;2022-07-03T14:54:27;26.40;49.20
51815;DHT22;37874;53.158;6.766;2022-07-03T14:56:57;26.30;49.00
51815;DHT22;37874;53.158;6.766;2022-07-03T14:59:47;26.30;49.40
51815;DHT22;37874;53.158;6.766;2022-07-03T15:02:23;26.30;50.00
51815;DHT22;37874;53.158;6.766;2022-07-03T15:07:36;26.30;49.30
51815;DHT22;37874;53.158;6.766;2022-07-03T15:10:13;26.30;49.50
51815;DHT22;37874;53.158;6.766;2022-07-03T15:12:51;26.20;49.70
51815;DHT22;37874;53.158;6.766;2022-07-03T15:15:19;26.20;50.50
51815;DHT22;37874;53.158;6.766;2022-07-03T15:17:52;26.20;50.20
51815;DHT22;37874;53.158;6.766;2022-07-03T15:20:19;26.20;51.10
51815;DHT22;37874;53.158;6.766;2022-07-03T15:22:46;26.30;51.30
51815;DHT22;37874;53.158;6.766;2022-07-03T15:25:15;26.30;50.60
51815;DHT22;37874;53.158;6.766;2022-07-03T15:27:41;26.30;50.30
51815;DHT22;37874;53.158;6.766;2022-07-03T15:30:10;26.40;51.10
51815;DHT22;37874;53.158;6.766;2022-07-03T15:32:40;26.50;51.20
51815;DHT22;37874;53.158;6.766;2022-07-03T15:35:10;26.50;50.00
51815;DHT22;37874;53.158;6.766;2022-07-03T15:40:33;26.70;49.90
51815;DHT22;37874;53.158;6.766;2022-07-03T15:51:23;27.00;48.80
51815;DHT22;37874;53.158;6.766;2022-07-03T15:54:01;26.90;48.10
51815;DHT22;37874;53.158;6.766;2022-07-03T15:56:35;26.90;48.10
51815;DHT22;37874;53.158;6.766;2022-07-03T15:59:13;26.80;48.30
51815;DHT22;37874;53.158;6.766;2022-07-03T16:01:52;26.70;48.40
51815;DHT22;37874;53.158;6.766;2022-07-03T16:07:27;26.60;48.60
51815;DHT22;37874;53.158;6.766;2022-07-03T16:10:00;26.60;48.00
51815;DHT22;37874;53.158;6.766;2022-07-03T16:12:30;26.50;48.60
51815;DHT22;37874;53.158;6.766;2022-07-03T16:14:57;26.50;48.40
51815;DHT22;37874;53.158;6.766;2022-07-03T16:17:27;26.50;48.50
51815;DHT22;37874;53.158;6.766;2022-07-03T16:20:08;26.50;48.60
51815;DHT22;37874;53.158;6.766;2022-07-03T16:22:41;26.50;48.80
51815;DHT22;37874;53.158;6.766;2022-07-03T16:25:10;26.50;48.90
51815;DHT22;37874;53.158;6.766;2022-07-03T16:27:36;26.50;49.10
51815;DHT22;37874;53.158;6.766;2022-07-03T16:30:04;26.50;48.50
51815;DHT22;37874;53.158;6.766;2022-07-03T16:32:36;26.50;48.60
51815;DHT22;37874;53.158;6.766;2022-07-03T16:35:45;26.50;47.70
51815;DHT22;37874;53.158;6.766;2022-07-03T16:38:25;26.60;48.10
51815;DHT22;37874;53.158;6.766;2022-07-03T16:40:51;26.50;47.90
51815;DHT22;37874;53.158;6.766;2022-07-03T16:43:21;26.50;48.20
51815;DHT22;37874;53.158;6.766;2022-07-03T16:45:51;26.50;48.80
51815;DHT22;37874;53.158;6.766;2022-07-03T16:48:28;26.50;48.80
51815;DHT22;37874;53.158;6.766;2022-07-03T16:50:59;26.40;49.10
51815;DHT22;37874;53.158;6.766;2022-07-03T16:53:37;26.50;49.20
51815;DHT22;37874;53.158;6.766;2022-07-03T16:56:10;26.50;49.40
51815;DHT22;37874;53.158;6.766;2022-07-03T16:58:46;26.50;50.10
51815;DHT22;37874;53.158;6.766;2022-07-03T17:01:15;26.60;48.80
51815;DHT22;37874;53.158;6.766;2022-07-03T17:04:01;26.60;49.00
51815;DHT22;37874;53.158;6.766;2022-07-03T17:06:40;26.60;49.00
51815;DHT22;37874;53.158;6.766;2022-07-03T17:09:10;26.60;48.00
51815;DHT22;37874;53.158;6.766;2022-07-03T17:11:44;26.60;48.00
51815;DHT22;37874;53.158;6.766;2022-07-03T17:14:14;26.60;47.60
51815;DHT22;37874;53.158;6.766;2022-07-03T17:16:46;26.60;47.90
51815;DHT22;37874;53.158;6.766;2022-07-03T17:19:22;26.50;47.90
51815;DHT22;37874;53.158;6.766;2022-07-03T17:21:54;26.50;47.60
51815;DHT22;37874;53.158;6.766;2022-07-03T17:24:21;26.50;47.50
51815;DHT22;37874;53.158;6.766;2022-07-03T17:26:51;26.50;47.40
51815;DHT22;37874;53.158;6.766;2022-07-03T17:29:32;26.50;47.30
51815;DHT22;37874;53.158;6.766;2022-07-03T17:32:15;26.50;47.40
51815;DHT22;37874;53.158;6.766;2022-07-03T17:34:54;26.50;47.90
51815;DHT22;37874;53.158;6.766;2022-07-03T17:37:24;26.40;47.40
51815;DHT22;37874;53.158;6.766;2022-07-03T17:39:54;26.40;47.70
51815;DHT22;37874;53.158;6.766;2022-07-03T17:42:23;26.40;47.70
51815;DHT22;37874;53.158;6.766;2022-07-03T17:44:56;26.30;47.20
51815;DHT22;37874;53.158;6.766;2022-07-03T17:47:31;26.30;47.30
51815;DHT22;37874;53.158;6.766;2022-07-03T17:50:06;26.30;47.70
51815;DHT22;37874;53.158;6.766;2022-07-03T17:52:42;26.20;47.50
51815;DHT22;37874;53.158;6.766;2022-07-03T17:55:12;26.20;47.90
51815;DHT22;37874;53.158;6.766;2022-07-03T17:57:44;26.20;47.90
51815;DHT22;37874;53.158;6.766;2022-07-03T18:00:15;26.20;47.70
51815;DHT22;37874;53.158;6.766;2022-07-03T18:02:47;26.20;48.00
51815;DHT22;37874;53.158;6.766;2022-07-03T18:05:17;26.20;47.60
51815;DHT22;37874;53.158;6.766;2022-07-03T18:08:06;26.10;47.90
51815;DHT22;37874;53.158;6.766;2022-07-03T18:13:54;26.10;47.80
51815;DHT22;37874;53.158;6.766;2022-07-03T18:16:45;26.10;47.50
51815;DHT22;37874;53.158;6.766;2022-07-03T18:19:30;26.10;47.30
51815;DHT22;37874;53.158;6.766;2022-07-03T18:22:04;26.10;47.50
51815;DHT22;37874;53.158;6.766;2022-07-03T18:24:35;26.00;47.70
51815;DHT22;37874;53.158;6.766;2022-07-03T18:27:09;26.00;47.70
51815;DHT22;37874;53.158;6.766;2022-07-03T18:29:51;26.00;47.90
51815;DHT22;37874;53.158;6.766;2022-07-03T18:32:21;26.00;47.60
51815;DHT22;37874;53.158;6.766;2022-07-03T18:35:05;26.00;47.50
51815;DHT22;37874;53.158;6.766;2022-07-03T18:37:40;26.00;47.70
51815;DHT22;37874;53.158;6.766;2022-07-03T18:40:15;26.00;47.80
51815;DHT22;37874;53.158;6.766;2022-07-03T18:42:43;26.10;48.10
51815;DHT22;37874;53.158;6.766;2022-07-03T18:45:16;26.00;47.60
51815;DHT22;37874;53.158;6.766;2022-07-03T18:47:50;26.10;47.40
51815;DHT22;37874;53.158;6.766;2022-07-03T18:50:24;26.10;47.40
51815;DHT22;37874;53.158;6.766;2022-07-03T18:55:55;26.00;47.30
51815;DHT22;37874;53.158;6.766;2022-07-03T18:58:48;26.00;47.10
51815;DHT22;37874;53.158;6.766;2022-07-03T19:04:47;26.00;47.60
51815;DHT22;37874;53.158;6.766;2022-07-03T19:07:42;26.10;47.30
51815;DHT22;37874;53.158;6.766;2022-07-03T19:10:11;26.00;47.20
51815;DHT22;37874;53.158;6.766;2022-07-03T19:12:59;26.00;47.10
51815;DHT22;37874;53.158;6.766;2022-07-03T19:15:39;26.10;47.00
51815;DHT22;37874;53.158;6.766;2022-07-03T19:18:07;26.00;47.40
51815;DHT22;37874;53.158;6.766;2022-07-03T19:20:33;25.90;47.40
51815;DHT22;37874;53.158;6.766;2022-07-03T19:23:00;25.90;47.30
51815;DHT22;37874;53.158;6.766;2022-07-03T19:25:26;25.90;47.40
51815;DHT22;37874;53.158;6.766;2022-07-03T19:27:56;25.90;47.30
51815;DHT22;37874;53.158;6.766;2022-07-03T19:30:22;25.90;47.30
51815;DHT22;37874;53.158;6.766;2022-07-03T19:32:51;25.90;47.20
51815;DHT22;37874;53.158;6.766;2022-07-03T19:35:17;25.60;47.10
51815;DHT22;37874;53.158;6.766;2022-07-03T19:37:44;25.80;47.20
51815;DHT22;37874;53.158;6.766;2022-07-03T19:40:11;25.80;47.30
51815;DHT22;37874;53.158;6.766;2022-07-03T19:42:37;25.80;46.70
51815;DHT22;37874;53.158;6.766;2022-07-03T19:45:10;25.80;46.90
51815;DHT22;37874;53.158;6.766;2022-07-03T19:47:36;25.80;46.80
51815;DHT22;37874;53.158;6.766;2022-07-03T19:50:03;25.70;46.70
51815;DHT22;37874;53.158;6.766;2022-07-03T19:52:31;25.70;46.80
51815;DHT22;37874;53.158;6.766;2022-07-03T19:54:57;25.70;46.70
51815;DHT22;37874;53.158;6.766;2022-07-03T19:57:23;25.60;46.50
51815;DHT22;37874;53.158;6.766;2022-07-03T19:59:49;25.70;46.60
51815;DHT22;37874;53.158;6.766;2022-07-03T20:02:15;25.60;46.60
51815;DHT22;37874;53.158;6.766;2022-07-03T20:04:40;25.60;46.30
51815;DHT22;37874;53.158;6.766;2022-07-03T20:07:06;25.50;46.50
51815;DHT22;37874;53.158;6.766;2022-07-03T20:09:32;25.50;46.50
51815;DHT22;37874;53.158;6.766;2022-07-03T20:11:58;25.40;46.80
51815;DHT22;37874;53.158;6.766;2022-07-03T20:14:24;25.40;46.20
51815;DHT22;37874;53.158;6.766;2022-07-03T20:16:56;25.40;46.30
51815;DHT22;37874;53.158;6.766;2022-07-03T20:19:21;25.40;45.80
51815;DHT22;37874;53.158;6.766;2022-07-03T20:21:47;25.30;45.90
51815;DHT22;37874;53.158;6.766;2022-07-03T20:24:14;25.30;45.80
51815;DHT22;37874;53.158;6.766;2022-07-03T20:27:02;25.30;45.50
51815;DHT22;37874;53.158;6.766;2022-07-03T20:29:28;25.30;45.90
51815;DHT22;37874;53.158;6.766;2022-07-03T20:31:54;25.20;46.00
51815;DHT22;37874;53.158;6.766;2022-07-03T20:34:20;25.20;46.30
51815;DHT22;37874;53.158;6.766;2022-07-03T20:36:46;25.10;45.90
51815;DHT22;37874;53.158;6.766;2022-07-03T20:39:12;25.10;45.80
51815;DHT22;37874;53.158;6.766;2022-07-03T20:41:38;25.10;45.70
51815;DHT22;37874;53.158;6.766;2022-07-03T20:44:04;25.00;45.40
51815;DHT22;37874;53.158;6.766;2022-07-03T20:46:30;25.00;45.20
51815;DHT22;37874;53.158;6.766;2022-07-03T20:48:56;25.00;45.20
51815;DHT22;37874;53.158;6.766;2022-07-03T20:51:22;25.00;44.90
51815;DHT22;37874;53.158;6.766;2022-07-03T20:53:48;25.00;45.10
51815;DHT22;37874;53.158;6.766;2022-07-03T20:56:16;25.00;45.00
51815;DHT22;37874;53.158;6.766;2022-07-03T20:58:42;25.00;44.80
51815;DHT22;37874;53.158;6.766;2022-07-03T21:01:08;24.90;44.70